<?xml version="1.0" encoding="UTF-8" standalone="no" ?>
<gpx xmlns="http://www.topografix.com/GPX/1/1" xmlns:xsi="http://www.w3.org/2001/XMLSchema-instance" xsi:schemaLocation="http://www.topografix.com/GPX/1/1 http://www.topografix.com/GPX/1/1/gpx.xsd" version="1.1" creator="VisuGPX - https://www.visugpx.com">
  <metadata>
    <name>Trèfle pédestre</name>
    <desc><![CDATA[Trèfle pédestre du 16/08/20]]></desc>
  </metadata>
  <trk>
    <name><![CDATA[Tombe de la dame]]></name>
    <extensions>
      <line xmlns="http://www.topografix.com/GPX/gpx_style/0/2">
        <color>0000FF</color>
        <width>4</width>
      </line>
    </extensions>
    <trkseg>
      <trkpt lat="45.00667" lon="2.90501">
        <ele>1117.91</ele>
        <time>2017-09-07T13:24:55Z</time>
      </trkpt>
      <trkpt lat="45.00668" lon="2.90501">
        <ele>1117.91</ele>
        <time>2017-09-07T13:24:56Z</time>
      </trkpt>
      <trkpt lat="45.00666" lon="2.90502">
        <ele>1117.91</ele>
        <time>2017-09-07T13:25:01Z</time>
      </trkpt>
      <trkpt lat="45.00666" lon="2.90505">
        <ele>1117.91</ele>
        <time>2017-09-07T13:25:02Z</time>
      </trkpt>
      <trkpt lat="45.00666" lon="2.90508">
        <ele>1117.89</ele>
        <time>2017-09-07T13:25:03Z</time>
      </trkpt>
      <trkpt lat="45.00667" lon="2.90512">
        <ele>1117.88</ele>
        <time>2017-09-07T13:25:04Z</time>
      </trkpt>
      <trkpt lat="45.0067" lon="2.90514">
        <ele>1117.86</ele>
        <time>2017-09-07T13:25:05Z</time>
      </trkpt>
      <trkpt lat="45.00672" lon="2.90516">
        <ele>1117.8</ele>
        <time>2017-09-07T13:25:06Z</time>
      </trkpt>
      <trkpt lat="45.00675" lon="2.90517">
        <ele>1117.67</ele>
        <time>2017-09-07T13:25:07Z</time>
      </trkpt>
      <trkpt lat="45.00722" lon="2.90527">
        <ele>1117.36</ele>
        <time>2017-09-07T13:25:20Z</time>
      </trkpt>
      <trkpt lat="45.00744" lon="2.90525">
        <ele>1117.31</ele>
        <time>2017-09-07T13:25:25Z</time>
      </trkpt>
      <trkpt lat="45.00799" lon="2.9052">
        <ele>1116.03</ele>
        <time>2017-09-07T13:25:38Z</time>
      </trkpt>
      <trkpt lat="45.00803" lon="2.9052">
        <ele>1115.9</ele>
        <time>2017-09-07T13:25:39Z</time>
      </trkpt>
      <trkpt lat="45.00807" lon="2.90523">
        <ele>1115.78</ele>
        <time>2017-09-07T13:25:40Z</time>
      </trkpt>
      <trkpt lat="45.00816" lon="2.90529">
        <ele>1115.47</ele>
        <time>2017-09-07T13:25:42Z</time>
      </trkpt>
      <trkpt lat="45.00821" lon="2.90533">
        <ele>1115.32</ele>
        <time>2017-09-07T13:25:43Z</time>
      </trkpt>
      <trkpt lat="45.00827" lon="2.90538">
        <ele>1115.17</ele>
        <time>2017-09-07T13:25:44Z</time>
      </trkpt>
      <trkpt lat="45.00877" lon="2.90574">
        <ele>1112.73</ele>
        <time>2017-09-07T13:25:52Z</time>
      </trkpt>
      <trkpt lat="45.0094" lon="2.90612">
        <ele>1109.88</ele>
        <time>2017-09-07T13:26:02Z</time>
      </trkpt>
      <trkpt lat="45.00943" lon="2.90617">
        <ele>1110.08</ele>
        <time>2017-09-07T13:26:03Z</time>
      </trkpt>
      <trkpt lat="45.00943" lon="2.90622">
        <ele>1110.38</ele>
        <time>2017-09-07T13:26:04Z</time>
      </trkpt>
      <trkpt lat="45.00942" lon="2.90628">
        <ele>1110.71</ele>
        <time>2017-09-07T13:26:05Z</time>
      </trkpt>
      <trkpt lat="45.00941" lon="2.90634">
        <ele>1110.97</ele>
        <time>2017-09-07T13:26:06Z</time>
      </trkpt>
      <trkpt lat="45.00933" lon="2.90674">
        <ele>1111.18</ele>
        <time>2017-09-07T13:26:11Z</time>
      </trkpt>
      <trkpt lat="45.00931" lon="2.90683">
        <ele>1111.09</ele>
        <time>2017-09-07T13:26:12Z</time>
      </trkpt>
      <trkpt lat="45.00928" lon="2.90706">
        <ele>1110.84</ele>
        <time>2017-09-07T13:26:15Z</time>
      </trkpt>
      <trkpt lat="45.00928" lon="2.90711">
        <ele>1110.77</ele>
        <time>2017-09-07T13:26:16Z</time>
      </trkpt>
      <trkpt lat="45.0093" lon="2.90717">
        <ele>1110.67</ele>
        <time>2017-09-07T13:26:17Z</time>
      </trkpt>
      <trkpt lat="45.00933" lon="2.90721">
        <ele>1110.58</ele>
        <time>2017-09-07T13:26:18Z</time>
      </trkpt>
      <trkpt lat="45.00937" lon="2.90725">
        <ele>1110.47</ele>
        <time>2017-09-07T13:26:19Z</time>
      </trkpt>
      <trkpt lat="45.0094" lon="2.90729">
        <ele>1110.4</ele>
        <time>2017-09-07T13:26:20Z</time>
      </trkpt>
      <trkpt lat="45.00961" lon="2.90759">
        <ele>1112</ele>
        <time>2017-09-07T13:26:30Z</time>
      </trkpt>
      <trkpt lat="45.00986" lon="2.9079">
        <ele>1113.69</ele>
        <time>2017-09-07T13:26:40Z</time>
      </trkpt>
      <trkpt lat="45.01011" lon="2.90814">
        <ele>1115.52</ele>
        <time>2017-09-07T13:26:52Z</time>
      </trkpt>
      <trkpt lat="45.01019" lon="2.90824">
        <ele>1115.74</ele>
        <time>2017-09-07T13:26:59Z</time>
      </trkpt>
      <trkpt lat="45.01021" lon="2.90825">
        <ele>1115.77</ele>
        <time>2017-09-07T13:27:00Z</time>
      </trkpt>
      <trkpt lat="45.01023" lon="2.90826">
        <ele>1115.82</ele>
        <time>2017-09-07T13:27:01Z</time>
      </trkpt>
      <trkpt lat="45.01024" lon="2.90828">
        <ele>1115.86</ele>
        <time>2017-09-07T13:27:02Z</time>
      </trkpt>
      <trkpt lat="45.01026" lon="2.9083">
        <ele>1115.92</ele>
        <time>2017-09-07T13:27:03Z</time>
      </trkpt>
      <trkpt lat="45.01028" lon="2.90833">
        <ele>1115.96</ele>
        <time>2017-09-07T13:27:04Z</time>
      </trkpt>
      <trkpt lat="45.01032" lon="2.90845">
        <ele>1116</ele>
        <time>2017-09-07T13:27:07Z</time>
      </trkpt>
      <trkpt lat="45.01033" lon="2.90877">
        <ele>1115.9</ele>
        <time>2017-09-07T13:27:13Z</time>
      </trkpt>
      <trkpt lat="45.01019" lon="2.90961">
        <ele>1114.36</ele>
        <time>2017-09-07T13:27:24Z</time>
      </trkpt>
      <trkpt lat="45.00983" lon="2.91069">
        <ele>1112.17</ele>
        <time>2017-09-07T13:27:37Z</time>
      </trkpt>
      <trkpt lat="45.00974" lon="2.91095">
        <ele>1111.53</ele>
        <time>2017-09-07T13:27:40Z</time>
      </trkpt>
      <trkpt lat="45.00928" lon="2.91172">
        <ele>1109.49</ele>
        <time>2017-09-07T13:27:50Z</time>
      </trkpt>
      <trkpt lat="45.00924" lon="2.9118">
        <ele>1109.27</ele>
        <time>2017-09-07T13:27:51Z</time>
      </trkpt>
      <trkpt lat="45.0092" lon="2.91189">
        <ele>1109.04</ele>
        <time>2017-09-07T13:27:52Z</time>
      </trkpt>
      <trkpt lat="45.00917" lon="2.91198">
        <ele>1108.8</ele>
        <time>2017-09-07T13:27:53Z</time>
      </trkpt>
      <trkpt lat="45.00914" lon="2.91208">
        <ele>1108.52</ele>
        <time>2017-09-07T13:27:54Z</time>
      </trkpt>
      <trkpt lat="45.00894" lon="2.91304">
        <ele>1105.45</ele>
        <time>2017-09-07T13:28:03Z</time>
      </trkpt>
      <trkpt lat="45.0089" lon="2.91338">
        <ele>1104.19</ele>
        <time>2017-09-07T13:28:06Z</time>
      </trkpt>
      <trkpt lat="45.00887" lon="2.91349">
        <ele>1103.94</ele>
        <time>2017-09-07T13:28:07Z</time>
      </trkpt>
      <trkpt lat="45.00885" lon="2.9136">
        <ele>1103.67</ele>
        <time>2017-09-07T13:28:08Z</time>
      </trkpt>
      <trkpt lat="45.00878" lon="2.91382">
        <ele>1103.01</ele>
        <time>2017-09-07T13:28:10Z</time>
      </trkpt>
      <trkpt lat="45.00858" lon="2.9144">
        <ele>1100.38</ele>
        <time>2017-09-07T13:28:16Z</time>
      </trkpt>
      <trkpt lat="45.00838" lon="2.91509">
        <ele>1096.76</ele>
        <time>2017-09-07T13:28:23Z</time>
      </trkpt>
      <trkpt lat="45.00832" lon="2.91528">
        <ele>1095.16</ele>
        <time>2017-09-07T13:28:25Z</time>
      </trkpt>
      <trkpt lat="45.00827" lon="2.91536">
        <ele>1094.4</ele>
        <time>2017-09-07T13:28:26Z</time>
      </trkpt>
      <trkpt lat="45.00822" lon="2.91543">
        <ele>1093.65</ele>
        <time>2017-09-07T13:28:27Z</time>
      </trkpt>
      <trkpt lat="45.00807" lon="2.9156">
        <ele>1090.24</ele>
        <time>2017-09-07T13:28:30Z</time>
      </trkpt>
      <trkpt lat="45.00804" lon="2.91568">
        <ele>1089.33</ele>
        <time>2017-09-07T13:28:31Z</time>
      </trkpt>
      <trkpt lat="45.00802" lon="2.91577">
        <ele>1088.46</ele>
        <time>2017-09-07T13:28:32Z</time>
      </trkpt>
      <trkpt lat="45.008" lon="2.91587">
        <ele>1087.6</ele>
        <time>2017-09-07T13:28:33Z</time>
      </trkpt>
      <trkpt lat="45.00799" lon="2.91598">
        <ele>1086.71</ele>
        <time>2017-09-07T13:28:34Z</time>
      </trkpt>
      <trkpt lat="45.0079" lon="2.91654">
        <ele>1083.16</ele>
        <time>2017-09-07T13:28:39Z</time>
      </trkpt>
      <trkpt lat="45.0078" lon="2.91704">
        <ele>1080.09</ele>
        <time>2017-09-07T13:28:44Z</time>
      </trkpt>
      <trkpt lat="45.00762" lon="2.9176">
        <ele>1077.12</ele>
        <time>2017-09-07T13:28:50Z</time>
      </trkpt>
      <trkpt lat="45.00758" lon="2.91768">
        <ele>1076.68</ele>
        <time>2017-09-07T13:28:51Z</time>
      </trkpt>
      <trkpt lat="45.00724" lon="2.91827">
        <ele>1073.67</ele>
        <time>2017-09-07T13:28:58Z</time>
      </trkpt>
      <trkpt lat="45.00699" lon="2.91868">
        <ele>1071.49</ele>
        <time>2017-09-07T13:29:04Z</time>
      </trkpt>
      <trkpt lat="45.00668" lon="2.9191">
        <ele>1068.49</ele>
        <time>2017-09-07T13:29:11Z</time>
      </trkpt>
      <trkpt lat="45.00663" lon="2.91916">
        <ele>1068.03</ele>
        <time>2017-09-07T13:29:12Z</time>
      </trkpt>
      <trkpt lat="45.00659" lon="2.91921">
        <ele>1067.53</ele>
        <time>2017-09-07T13:29:13Z</time>
      </trkpt>
      <trkpt lat="45.00647" lon="2.91931">
        <ele>1066.48</ele>
        <time>2017-09-07T13:29:15Z</time>
      </trkpt>
      <trkpt lat="45.0064" lon="2.91936">
        <ele>1065.84</ele>
        <time>2017-09-07T13:29:16Z</time>
      </trkpt>
      <trkpt lat="45.00605" lon="2.91957">
        <ele>1062.59</ele>
        <time>2017-09-07T13:29:21Z</time>
      </trkpt>
      <trkpt lat="45.00554" lon="2.9198">
        <ele>1059.24</ele>
        <time>2017-09-07T13:29:29Z</time>
      </trkpt>
      <trkpt lat="45.00506" lon="2.9201">
        <ele>1056.16</ele>
        <time>2017-09-07T13:29:38Z</time>
      </trkpt>
      <trkpt lat="45.00495" lon="2.92016">
        <ele>1055.64</ele>
        <time>2017-09-07T13:29:40Z</time>
      </trkpt>
      <trkpt lat="45.00489" lon="2.92018">
        <ele>1055.36</ele>
        <time>2017-09-07T13:29:41Z</time>
      </trkpt>
      <trkpt lat="45.00484" lon="2.92021">
        <ele>1055.19</ele>
        <time>2017-09-07T13:29:42Z</time>
      </trkpt>
      <trkpt lat="45.00472" lon="2.92031">
        <ele>1054.67</ele>
        <time>2017-09-07T13:29:45Z</time>
      </trkpt>
      <trkpt lat="45.0045" lon="2.92057">
        <ele>1053.64</ele>
        <time>2017-09-07T13:29:51Z</time>
      </trkpt>
      <trkpt lat="45.00438" lon="2.92071">
        <ele>1052.94</ele>
        <time>2017-09-07T13:29:54Z</time>
      </trkpt>
      <trkpt lat="45.00434" lon="2.92076">
        <ele>1052.79</ele>
        <time>2017-09-07T13:29:55Z</time>
      </trkpt>
      <trkpt lat="45.00412" lon="2.92098">
        <ele>1052.19</ele>
        <time>2017-09-07T13:30:00Z</time>
      </trkpt>
      <trkpt lat="45.00404" lon="2.92105">
        <ele>1051.86</ele>
        <time>2017-09-07T13:30:02Z</time>
      </trkpt>
      <trkpt lat="45.00401" lon="2.9211">
        <ele>1051.69</ele>
        <time>2017-09-07T13:30:03Z</time>
      </trkpt>
      <trkpt lat="45.00398" lon="2.92116">
        <ele>1051.54</ele>
        <time>2017-09-07T13:30:04Z</time>
      </trkpt>
      <trkpt lat="45.00397" lon="2.92124">
        <ele>1051.4</ele>
        <time>2017-09-07T13:30:05Z</time>
      </trkpt>
      <trkpt lat="45.00395" lon="2.92133">
        <ele>1051.25</ele>
        <time>2017-09-07T13:30:06Z</time>
      </trkpt>
      <trkpt lat="45.00376" lon="2.9222">
        <ele>1048.8</ele>
        <time>2017-09-07T13:30:15Z</time>
      </trkpt>
      <trkpt lat="45.00372" lon="2.92231">
        <ele>1048.54</ele>
        <time>2017-09-07T13:30:16Z</time>
      </trkpt>
      <trkpt lat="45.00352" lon="2.92345">
        <ele>1046.36</ele>
        <time>2017-09-07T13:30:27Z</time>
      </trkpt>
      <trkpt lat="45.00333" lon="2.9254">
        <ele>1045.39</ele>
        <time>2017-09-07T13:30:43Z</time>
      </trkpt>
      <trkpt lat="45.00296" lon="2.92688">
        <ele>1046.17</ele>
        <time>2017-09-07T13:30:57Z</time>
      </trkpt>
      <trkpt lat="45.00288" lon="2.92715">
        <ele>1046.77</ele>
        <time>2017-09-07T13:31:01Z</time>
      </trkpt>
      <trkpt lat="45.00285" lon="2.92719">
        <ele>1046.95</ele>
        <time>2017-09-07T13:31:02Z</time>
      </trkpt>
      <trkpt lat="45.00282" lon="2.92722">
        <ele>1047.17</ele>
        <time>2017-09-07T13:31:03Z</time>
      </trkpt>
      <trkpt lat="45.00278" lon="2.92725">
        <ele>1047.37</ele>
        <time>2017-09-07T13:31:04Z</time>
      </trkpt>
      <trkpt lat="45.00274" lon="2.92726">
        <ele>1047.54</ele>
        <time>2017-09-07T13:31:05Z</time>
      </trkpt>
      <trkpt lat="45.0027" lon="2.92726">
        <ele>1047.66</ele>
        <time>2017-09-07T13:31:06Z</time>
      </trkpt>
      <trkpt lat="45.00266" lon="2.92726">
        <ele>1047.73</ele>
        <time>2017-09-07T13:31:07Z</time>
      </trkpt>
      <trkpt lat="45.00263" lon="2.92726">
        <ele>1047.78</ele>
        <time>2017-09-07T13:31:08Z</time>
      </trkpt>
      <trkpt lat="45.00228" lon="2.92736">
        <ele>1047.44</ele>
        <time>2017-09-07T13:31:19Z</time>
      </trkpt>
      <trkpt lat="45.0022" lon="2.92739">
        <ele>1047.32</ele>
        <time>2017-09-07T13:31:21Z</time>
      </trkpt>
      <trkpt lat="45.00217" lon="2.92737">
        <ele>1047.24</ele>
        <time>2017-09-07T13:31:22Z</time>
      </trkpt>
      <trkpt lat="45.00214" lon="2.92734">
        <ele>1047.15</ele>
        <time>2017-09-07T13:31:23Z</time>
      </trkpt>
      <trkpt lat="45.00212" lon="2.92729">
        <ele>1047.06</ele>
        <time>2017-09-07T13:31:24Z</time>
      </trkpt>
      <trkpt lat="45.00212" lon="2.92723">
        <ele>1046.95</ele>
        <time>2017-09-07T13:31:25Z</time>
      </trkpt>
      <trkpt lat="45.00213" lon="2.92717">
        <ele>1046.81</ele>
        <time>2017-09-07T13:31:26Z</time>
      </trkpt>
      <trkpt lat="45.00214" lon="2.92711">
        <ele>1046.6</ele>
        <time>2017-09-07T13:31:27Z</time>
      </trkpt>
      <trkpt lat="45.00215" lon="2.92706">
        <ele>1046.38</ele>
        <time>2017-09-07T13:31:28Z</time>
      </trkpt>
      <trkpt lat="45.00219" lon="2.92681">
        <ele>1045.61</ele>
        <time>2017-09-07T13:31:32Z</time>
      </trkpt>
      <trkpt lat="45.0022" lon="2.92674">
        <ele>1045.43</ele>
        <time>2017-09-07T13:31:33Z</time>
      </trkpt>
      <trkpt lat="45.00219" lon="2.9266">
        <ele>1045.04</ele>
        <time>2017-09-07T13:31:35Z</time>
      </trkpt>
      <trkpt lat="45.00199" lon="2.9255">
        <ele>1042.35</ele>
        <time>2017-09-07T13:31:50Z</time>
      </trkpt>
      <trkpt lat="45.00198" lon="2.92543">
        <ele>1042.24</ele>
        <time>2017-09-07T13:31:51Z</time>
      </trkpt>
      <trkpt lat="45.00197" lon="2.92522">
        <ele>1041.99</ele>
        <time>2017-09-07T13:31:54Z</time>
      </trkpt>
      <trkpt lat="45.00194" lon="2.92502">
        <ele>1041.65</ele>
        <time>2017-09-07T13:31:57Z</time>
      </trkpt>
      <trkpt lat="45.00192" lon="2.92496">
        <ele>1041.55</ele>
        <time>2017-09-07T13:31:58Z</time>
      </trkpt>
      <trkpt lat="45.00189" lon="2.92491">
        <ele>1041.46</ele>
        <time>2017-09-07T13:31:59Z</time>
      </trkpt>
      <trkpt lat="45.00186" lon="2.92486">
        <ele>1041.39</ele>
        <time>2017-09-07T13:32:00Z</time>
      </trkpt>
      <trkpt lat="45.00183" lon="2.92482">
        <ele>1041.35</ele>
        <time>2017-09-07T13:32:01Z</time>
      </trkpt>
      <trkpt lat="45.00179" lon="2.92479">
        <ele>1041.3</ele>
        <time>2017-09-07T13:32:02Z</time>
      </trkpt>
      <trkpt lat="45.00175" lon="2.92476">
        <ele>1041.22</ele>
        <time>2017-09-07T13:32:03Z</time>
      </trkpt>
      <trkpt lat="45.0017" lon="2.92474">
        <ele>1041.09</ele>
        <time>2017-09-07T13:32:04Z</time>
      </trkpt>
      <trkpt lat="45.00081" lon="2.9243">
        <ele>1040.4</ele>
        <time>2017-09-07T13:32:20Z</time>
      </trkpt>
      <trkpt lat="45.00037" lon="2.924">
        <ele>1040.47</ele>
        <time>2017-09-07T13:32:28Z</time>
      </trkpt>
      <trkpt lat="45.00033" lon="2.92394">
        <ele>1040.54</ele>
        <time>2017-09-07T13:32:29Z</time>
      </trkpt>
      <trkpt lat="45.0003" lon="2.92387">
        <ele>1040.6</ele>
        <time>2017-09-07T13:32:30Z</time>
      </trkpt>
      <trkpt lat="45.00027" lon="2.92381">
        <ele>1040.68</ele>
        <time>2017-09-07T13:32:31Z</time>
      </trkpt>
      <trkpt lat="45.00025" lon="2.92374">
        <ele>1040.78</ele>
        <time>2017-09-07T13:32:32Z</time>
      </trkpt>
      <trkpt lat="45.00024" lon="2.92366">
        <ele>1040.86</ele>
        <time>2017-09-07T13:32:33Z</time>
      </trkpt>
      <trkpt lat="45.00023" lon="2.92359">
        <ele>1040.94</ele>
        <time>2017-09-07T13:32:34Z</time>
      </trkpt>
      <trkpt lat="45.00021" lon="2.92352">
        <ele>1041</ele>
        <time>2017-09-07T13:32:35Z</time>
      </trkpt>
      <trkpt lat="44.99994" lon="2.92266">
        <ele>1044.02</ele>
        <time>2017-09-07T13:32:50Z</time>
      </trkpt>
      <trkpt lat="44.99977" lon="2.92227">
        <ele>1045.74</ele>
        <time>2017-09-07T13:33:01Z</time>
      </trkpt>
      <trkpt lat="44.99966" lon="2.92196">
        <ele>1045.65</ele>
        <time>2017-09-07T13:33:07Z</time>
      </trkpt>
      <trkpt lat="44.99936" lon="2.92093">
        <ele>1043.91</ele>
        <time>2017-09-07T13:33:23Z</time>
      </trkpt>
      <trkpt lat="44.99898" lon="2.91999">
        <ele>1044.11</ele>
        <time>2017-09-07T13:33:39Z</time>
      </trkpt>
      <trkpt lat="44.9988" lon="2.91916">
        <ele>1046.97</ele>
        <time>2017-09-07T13:33:54Z</time>
      </trkpt>
      <trkpt lat="44.99868" lon="2.91856">
        <ele>1049.45</ele>
        <time>2017-09-07T13:34:08Z</time>
      </trkpt>
      <trkpt lat="44.99851" lon="2.91786">
        <ele>1052.46</ele>
        <time>2017-09-07T13:34:25Z</time>
      </trkpt>
      <trkpt lat="44.99839" lon="2.91745">
        <ele>1054.8</ele>
        <time>2017-09-07T13:34:38Z</time>
      </trkpt>
      <trkpt lat="44.99838" lon="2.91744">
        <ele>1055.3</ele>
        <time>2017-09-07T13:34:51Z</time>
      </trkpt>
      <trkpt lat="44.99837" lon="2.91742">
        <ele>1055.29</ele>
        <time>2017-09-07T13:34:52Z</time>
      </trkpt>
      <trkpt lat="44.99829" lon="2.91691">
        <ele>1056.26</ele>
        <time>2017-09-07T13:35:06Z</time>
      </trkpt>
      <trkpt lat="44.99824" lon="2.91632">
        <ele>1057.36</ele>
        <time>2017-09-07T13:35:19Z</time>
      </trkpt>
      <trkpt lat="44.99814" lon="2.91576">
        <ele>1058.3</ele>
        <time>2017-09-07T13:35:31Z</time>
      </trkpt>
      <trkpt lat="44.998" lon="2.91496">
        <ele>1059.21</ele>
        <time>2017-09-07T13:35:48Z</time>
      </trkpt>
      <trkpt lat="44.99793" lon="2.91463">
        <ele>1059.37</ele>
        <time>2017-09-07T13:35:55Z</time>
      </trkpt>
      <trkpt lat="44.99776" lon="2.91397">
        <ele>1059.35</ele>
        <time>2017-09-07T13:36:08Z</time>
      </trkpt>
      <trkpt lat="44.99754" lon="2.91337">
        <ele>1059.07</ele>
        <time>2017-09-07T13:36:20Z</time>
      </trkpt>
      <trkpt lat="44.99728" lon="2.91262">
        <ele>1058.88</ele>
        <time>2017-09-07T13:36:35Z</time>
      </trkpt>
      <trkpt lat="44.99708" lon="2.91213">
        <ele>1058.94</ele>
        <time>2017-09-07T13:36:46Z</time>
      </trkpt>
      <trkpt lat="44.99709" lon="2.91208">
        <ele>1058.95</ele>
        <time>2017-09-07T13:36:47Z</time>
      </trkpt>
      <trkpt lat="44.99711" lon="2.91203">
        <ele>1058.98</ele>
        <time>2017-09-07T13:36:48Z</time>
      </trkpt>
      <trkpt lat="44.99712" lon="2.91198">
        <ele>1058.99</ele>
        <time>2017-09-07T13:36:49Z</time>
      </trkpt>
      <trkpt lat="44.99713" lon="2.91193">
        <ele>1059.02</ele>
        <time>2017-09-07T13:36:50Z</time>
      </trkpt>
      <trkpt lat="44.99729" lon="2.9113">
        <ele>1059.89</ele>
        <time>2017-09-07T13:37:03Z</time>
      </trkpt>
      <trkpt lat="44.9974" lon="2.91063">
        <ele>1061.72</ele>
        <time>2017-09-07T13:37:15Z</time>
      </trkpt>
      <trkpt lat="44.99755" lon="2.90979">
        <ele>1063.33</ele>
        <time>2017-09-07T13:37:30Z</time>
      </trkpt>
      <trkpt lat="44.9977" lon="2.90906">
        <ele>1065.59</ele>
        <time>2017-09-07T13:37:45Z</time>
      </trkpt>
      <trkpt lat="44.99778" lon="2.90861">
        <ele>1067.48</ele>
        <time>2017-09-07T13:37:59Z</time>
      </trkpt>
      <trkpt lat="44.99789" lon="2.90823">
        <ele>1069.57</ele>
        <time>2017-09-07T13:38:14Z</time>
      </trkpt>
      <trkpt lat="44.99815" lon="2.90778">
        <ele>1071.76</ele>
        <time>2017-09-07T13:38:31Z</time>
      </trkpt>
      <trkpt lat="44.99824" lon="2.90765">
        <ele>1073.12</ele>
        <time>2017-09-07T13:38:42Z</time>
      </trkpt>
      <trkpt lat="44.99835" lon="2.90747">
        <ele>1073.58</ele>
        <time>2017-09-07T13:39:24Z</time>
      </trkpt>
      <trkpt lat="44.99847" lon="2.90725">
        <ele>1075.5</ele>
        <time>2017-09-07T13:39:39Z</time>
      </trkpt>
      <trkpt lat="44.9986" lon="2.90706">
        <ele>1076.39</ele>
        <time>2017-09-07T13:39:57Z</time>
      </trkpt>
      <trkpt lat="44.99883" lon="2.90664">
        <ele>1078.97</ele>
        <time>2017-09-07T13:40:13Z</time>
      </trkpt>
      <trkpt lat="44.99898" lon="2.90632">
        <ele>1081.25</ele>
        <time>2017-09-07T13:40:26Z</time>
      </trkpt>
      <trkpt lat="44.99914" lon="2.90615">
        <ele>1083.3</ele>
        <time>2017-09-07T13:40:38Z</time>
      </trkpt>
      <trkpt lat="44.99915" lon="2.90614">
        <ele>1083.44</ele>
        <time>2017-09-07T13:40:39Z</time>
      </trkpt>
      <trkpt lat="44.99917" lon="2.90613">
        <ele>1083.61</ele>
        <time>2017-09-07T13:40:40Z</time>
      </trkpt>
      <trkpt lat="44.99918" lon="2.90613">
        <ele>1083.76</ele>
        <time>2017-09-07T13:40:41Z</time>
      </trkpt>
      <trkpt lat="44.9992" lon="2.90612">
        <ele>1083.9</ele>
        <time>2017-09-07T13:40:42Z</time>
      </trkpt>
      <trkpt lat="44.99921" lon="2.90611">
        <ele>1084.03</ele>
        <time>2017-09-07T13:40:43Z</time>
      </trkpt>
      <trkpt lat="44.99922" lon="2.90609">
        <ele>1084.17</ele>
        <time>2017-09-07T13:40:44Z</time>
      </trkpt>
      <trkpt lat="44.99927" lon="2.90604">
        <ele>1084.75</ele>
        <time>2017-09-07T13:40:48Z</time>
      </trkpt>
      <trkpt lat="44.99932" lon="2.90595">
        <ele>1085.6</ele>
        <time>2017-09-07T13:40:53Z</time>
      </trkpt>
      <trkpt lat="44.99932" lon="2.90593">
        <ele>1086.02</ele>
        <time>2017-09-07T13:40:54Z</time>
      </trkpt>
      <trkpt lat="44.99933" lon="2.90591">
        <ele>1086.28</ele>
        <time>2017-09-07T13:40:55Z</time>
      </trkpt>
      <trkpt lat="44.99934" lon="2.90589">
        <ele>1086.54</ele>
        <time>2017-09-07T13:40:56Z</time>
      </trkpt>
      <trkpt lat="44.99935" lon="2.90587">
        <ele>1086.78</ele>
        <time>2017-09-07T13:40:57Z</time>
      </trkpt>
      <trkpt lat="44.99935" lon="2.90584">
        <ele>1086.99</ele>
        <time>2017-09-07T13:40:58Z</time>
      </trkpt>
      <trkpt lat="44.9994" lon="2.9056">
        <ele>1088.98</ele>
        <time>2017-09-07T13:41:10Z</time>
      </trkpt>
      <trkpt lat="44.9994" lon="2.90558">
        <ele>1089.08</ele>
        <time>2017-09-07T13:41:11Z</time>
      </trkpt>
      <trkpt lat="44.9994" lon="2.90555">
        <ele>1089.17</ele>
        <time>2017-09-07T13:41:12Z</time>
      </trkpt>
      <trkpt lat="44.9994" lon="2.90552">
        <ele>1089.24</ele>
        <time>2017-09-07T13:41:13Z</time>
      </trkpt>
      <trkpt lat="44.99942" lon="2.90528">
        <ele>1090.26</ele>
        <time>2017-09-07T13:41:24Z</time>
      </trkpt>
      <trkpt lat="44.99926" lon="2.90506">
        <ele>1091.48</ele>
        <time>2017-09-07T13:41:36Z</time>
      </trkpt>
      <trkpt lat="44.99924" lon="2.905">
        <ele>1092.06</ele>
        <time>2017-09-07T13:41:53Z</time>
      </trkpt>
      <trkpt lat="44.99923" lon="2.90499">
        <ele>1092.06</ele>
        <time>2017-09-07T13:41:54Z</time>
      </trkpt>
      <trkpt lat="44.99922" lon="2.90497">
        <ele>1092.06</ele>
        <time>2017-09-07T13:41:55Z</time>
      </trkpt>
      <trkpt lat="44.99921" lon="2.90495">
        <ele>1092.06</ele>
        <time>2017-09-07T13:41:56Z</time>
      </trkpt>
      <trkpt lat="44.9992" lon="2.90493">
        <ele>1092.06</ele>
        <time>2017-09-07T13:41:57Z</time>
      </trkpt>
      <trkpt lat="44.9992" lon="2.9049">
        <ele>1092.08</ele>
        <time>2017-09-07T13:41:58Z</time>
      </trkpt>
      <trkpt lat="44.99919" lon="2.90486">
        <ele>1092.11</ele>
        <time>2017-09-07T13:41:59Z</time>
      </trkpt>
      <trkpt lat="44.99924" lon="2.90438">
        <ele>1092.57</ele>
        <time>2017-09-07T13:42:12Z</time>
      </trkpt>
      <trkpt lat="44.99935" lon="2.90394">
        <ele>1094.51</ele>
        <time>2017-09-07T13:42:25Z</time>
      </trkpt>
      <trkpt lat="44.99952" lon="2.90402">
        <ele>1096.49</ele>
        <time>2017-09-07T13:42:36Z</time>
      </trkpt>
      <trkpt lat="44.9998" lon="2.90417">
        <ele>1098.32</ele>
        <time>2017-09-07T13:42:49Z</time>
      </trkpt>
      <trkpt lat="45.00029" lon="2.90425">
        <ele>1099.08</ele>
        <time>2017-09-07T13:43:04Z</time>
      </trkpt>
      <trkpt lat="45.00084" lon="2.9042">
        <ele>1100.1</ele>
        <time>2017-09-07T13:43:20Z</time>
      </trkpt>
      <trkpt lat="45.00121" lon="2.90431">
        <ele>1100.37</ele>
        <time>2017-09-07T13:43:31Z</time>
      </trkpt>
      <trkpt lat="45.00125" lon="2.90435">
        <ele>1100.34</ele>
        <time>2017-09-07T13:43:32Z</time>
      </trkpt>
      <trkpt lat="45.00129" lon="2.90438">
        <ele>1100.31</ele>
        <time>2017-09-07T13:43:33Z</time>
      </trkpt>
      <trkpt lat="45.00134" lon="2.90441">
        <ele>1100.25</ele>
        <time>2017-09-07T13:43:34Z</time>
      </trkpt>
      <trkpt lat="45.00138" lon="2.90445">
        <ele>1100.17</ele>
        <time>2017-09-07T13:43:35Z</time>
      </trkpt>
      <trkpt lat="45.00143" lon="2.90448">
        <ele>1100.03</ele>
        <time>2017-09-07T13:43:36Z</time>
      </trkpt>
      <trkpt lat="45.00148" lon="2.90451">
        <ele>1099.85</ele>
        <time>2017-09-07T13:43:37Z</time>
      </trkpt>
      <trkpt lat="45.00152" lon="2.90453">
        <ele>1099.65</ele>
        <time>2017-09-07T13:43:38Z</time>
      </trkpt>
      <trkpt lat="45.00185" lon="2.90468">
        <ele>1098.31</ele>
        <time>2017-09-07T13:43:47Z</time>
      </trkpt>
      <trkpt lat="45.00213" lon="2.90483">
        <ele>1098.11</ele>
        <time>2017-09-07T13:43:57Z</time>
      </trkpt>
      <trkpt lat="45.00219" lon="2.90486">
        <ele>1098.07</ele>
        <time>2017-09-07T13:43:59Z</time>
      </trkpt>
      <trkpt lat="45.00221" lon="2.90488">
        <ele>1098.06</ele>
        <time>2017-09-07T13:44:00Z</time>
      </trkpt>
      <trkpt lat="45.00222" lon="2.9049">
        <ele>1098.05</ele>
        <time>2017-09-07T13:44:01Z</time>
      </trkpt>
      <trkpt lat="45.00224" lon="2.90492">
        <ele>1098.05</ele>
        <time>2017-09-07T13:44:02Z</time>
      </trkpt>
      <trkpt lat="45.00227" lon="2.90495">
        <ele>1098.07</ele>
        <time>2017-09-07T13:44:03Z</time>
      </trkpt>
      <trkpt lat="45.0023" lon="2.90497">
        <ele>1098.11</ele>
        <time>2017-09-07T13:44:04Z</time>
      </trkpt>
      <trkpt lat="45.00233" lon="2.905">
        <ele>1098.16</ele>
        <time>2017-09-07T13:44:05Z</time>
      </trkpt>
      <trkpt lat="45.00236" lon="2.90503">
        <ele>1098.21</ele>
        <time>2017-09-07T13:44:06Z</time>
      </trkpt>
      <trkpt lat="45.00273" lon="2.90531">
        <ele>1098.57</ele>
        <time>2017-09-07T13:44:19Z</time>
      </trkpt>
      <trkpt lat="45.00301" lon="2.9055">
        <ele>1098.87</ele>
        <time>2017-09-07T13:44:29Z</time>
      </trkpt>
      <trkpt lat="45.00325" lon="2.90568">
        <ele>1099.73</ele>
        <time>2017-09-07T13:44:39Z</time>
      </trkpt>
      <trkpt lat="45.0037" lon="2.90573">
        <ele>1100.93</ele>
        <time>2017-09-07T13:44:53Z</time>
      </trkpt>
      <trkpt lat="45.00413" lon="2.9058">
        <ele>1102.67</ele>
        <time>2017-09-07T13:45:07Z</time>
      </trkpt>
      <trkpt lat="45.00448" lon="2.90581">
        <ele>1103.46</ele>
        <time>2017-09-07T13:45:21Z</time>
      </trkpt>
      <trkpt lat="45.0045" lon="2.90578">
        <ele>1103.52</ele>
        <time>2017-09-07T13:45:22Z</time>
      </trkpt>
      <trkpt lat="45.00452" lon="2.90574">
        <ele>1103.6</ele>
        <time>2017-09-07T13:45:23Z</time>
      </trkpt>
      <trkpt lat="45.00452" lon="2.90571">
        <ele>1103.7</ele>
        <time>2017-09-07T13:45:24Z</time>
      </trkpt>
      <trkpt lat="45.00454" lon="2.90567">
        <ele>1103.93</ele>
        <time>2017-09-07T13:45:25Z</time>
      </trkpt>
      <trkpt lat="45.00455" lon="2.90563">
        <ele>1104.04</ele>
        <time>2017-09-07T13:45:26Z</time>
      </trkpt>
      <trkpt lat="45.00456" lon="2.9056">
        <ele>1104.17</ele>
        <time>2017-09-07T13:45:27Z</time>
      </trkpt>
      <trkpt lat="45.00458" lon="2.90557">
        <ele>1104.35</ele>
        <time>2017-09-07T13:45:28Z</time>
      </trkpt>
      <trkpt lat="45.00459" lon="2.90554">
        <ele>1104.55</ele>
        <time>2017-09-07T13:45:29Z</time>
      </trkpt>
      <trkpt lat="45.00493" lon="2.90527">
        <ele>1107.03</ele>
        <time>2017-09-07T13:45:44Z</time>
      </trkpt>
      <trkpt lat="45.00533" lon="2.9052">
        <ele>1109.94</ele>
        <time>2017-09-07T13:45:59Z</time>
      </trkpt>
      <trkpt lat="45.00571" lon="2.90515">
        <ele>1112.02</ele>
        <time>2017-09-07T13:46:12Z</time>
      </trkpt>
      <trkpt lat="45.00603" lon="2.90504">
        <ele>1114.37</ele>
        <time>2017-09-07T13:46:23Z</time>
      </trkpt>
      <trkpt lat="45.00643" lon="2.90506">
        <ele>1117.27</ele>
        <time>2017-09-07T13:46:38Z</time>
      </trkpt>
      <trkpt lat="45.00661" lon="2.90512">
        <ele>1118.99</ele>
        <time>2017-09-07T13:46:51Z</time>
      </trkpt>
      <trkpt lat="45.00665" lon="2.90512">
        <ele>1119.41</ele>
        <time>2017-09-07T13:47:12Z</time>
      </trkpt>
    </trkseg>
  </trk>
</gpx>